createdAt,value
2019-03-06T00:01:03.231Z,1.45
2019-03-06T00:03:32.099Z,1.50
2019-03-06T00:06:00.867Z,1.70
2019-03-06T00:08:29.675Z,1.80
2019-03-06T00:10:58.470Z,1.77
2019-03-06T00:13:27.283Z,1.80
2019-03-06T00:15:56.208Z,1.77
2019-03-06T00:18:25.091Z,1.80
2019-03-06T00:20:54.031Z,1.60
2019-03-06T00:23:22.815Z,1.70
2019-03-06T00:25:51.628Z,1.60
2019-03-06T00:28:20.422Z,1.62
2019-03-06T00:30:49.361Z,1.70
2019-03-06T00:33:18.147Z,2.00
2019-03-06T00:35:48.794Z,1.80
2019-03-06T00:38:17.648Z,1.95
2019-03-06T00:41:23.891Z,1.90
2019-03-06T00:43:53.104Z,1.70
2019-03-06T00:46:22.299Z,1.80
2019-03-06T00:48:51.186Z,2.10
2019-03-06T00:51:20.030Z,2.30
2019-03-06T00:53:48.890Z,2.33
2019-03-06T00:56:17.778Z,2.50
2019-03-06T00:58:46.576Z,2.35
2019-03-06T01:01:16.110Z,2.58
2019-03-06T01:03:44.978Z,2.62
2019-03-06T01:06:13.819Z,2.60
2019-03-06T01:08:42.716Z,2.50
2019-03-06T01:11:11.851Z,2.70
2019-03-06T01:13:40.870Z,2.60
2019-03-06T01:16:10.192Z,2.50
2019-03-06T01:18:38.994Z,2.55
2019-03-06T01:21:07.854Z,2.27
2019-03-06T01:23:36.783Z,2.30
2019-03-06T01:26:06.062Z,2.33
2019-03-06T01:28:34.947Z,2.30
2019-03-06T01:31:03.846Z,2.27
2019-03-06T01:33:51.829Z,2.37
2019-03-06T01:36:51.886Z,2.12
2019-03-06T01:39:38.578Z,2.45
2019-03-06T01:42:32.458Z,2.33
2019-03-06T01:45:04.518Z,2.27
2019-03-06T01:47:33.375Z,2.30
2019-03-06T01:50:02.163Z,2.33
2019-03-06T01:52:30.962Z,2.40
2019-03-06T01:55:00.163Z,2.70
2019-03-06T01:57:29.412Z,2.47
2019-03-06T01:59:58.267Z,2.55
2019-03-06T02:02:27.158Z,2.50
2019-03-06T02:04:56.007Z,2.85
2019-03-06T02:07:25.080Z,2.70
2019-03-06T02:09:55.233Z,2.92
2019-03-06T02:12:24.149Z,2.98
2019-03-06T02:14:53.422Z,3.25
2019-03-06T02:17:22.286Z,3.45
2019-03-06T02:19:51.298Z,3.17
2019-03-06T02:22:20.182Z,3.12
2019-03-06T02:24:49.058Z,3.10
2019-03-06T02:27:17.995Z,3.40
2019-03-06T02:29:46.803Z,3.22
2019-03-06T02:32:15.699Z,3.37
2019-03-06T02:34:44.722Z,3.40
2019-03-06T02:37:13.882Z,3.63
2019-03-06T02:39:42.906Z,3.80
2019-03-06T02:42:11.790Z,4.85
2019-03-06T02:44:40.664Z,4.95
2019-03-06T02:47:09.519Z,6.15
2019-03-06T02:49:38.313Z,6.30
2019-03-06T02:52:07.613Z,5.80
2019-03-06T02:54:36.552Z,6.50
2019-03-06T02:57:05.588Z,6.97
2019-03-06T02:59:43.904Z,5.55
2019-03-06T03:02:30.809Z,4.80
2019-03-06T03:05:22.772Z,4.70
2019-03-06T03:07:51.966Z,5.47
2019-03-06T03:10:20.958Z,6.30
2019-03-06T03:12:50.025Z,6.40
2019-03-06T03:15:19.182Z,5.93
2019-03-06T03:17:48.444Z,6.22
2019-03-06T03:20:18.372Z,7.93
2019-03-06T03:22:47.454Z,7.28
2019-03-06T03:25:16.519Z,9.15
2019-03-06T03:27:46.020Z,8.53
2019-03-06T03:30:15.390Z,12.93
2019-03-06T03:32:44.656Z,8.90
2019-03-06T03:35:13.801Z,7.90
2019-03-06T03:37:42.918Z,8.40
2019-03-06T03:40:12.711Z,7.08
2019-03-06T03:42:41.745Z,7.17
2019-03-06T03:45:11.424Z,7.22
2019-03-06T03:47:40.291Z,6.83
2019-03-06T03:50:09.848Z,8.50
2019-03-06T03:52:39.735Z,7.95
2019-03-06T03:55:08.784Z,9.65
2019-03-06T03:57:37.844Z,9.13
2019-03-06T04:00:08.277Z,8.33
2019-03-06T04:02:37.388Z,10.95
2019-03-06T04:05:07.195Z,9.23
2019-03-06T04:07:36.221Z,10.53
2019-03-06T04:10:05.859Z,10.38
2019-03-06T04:12:35.153Z,11.78
2019-03-06T04:15:04.922Z,11.43
2019-03-06T04:17:33.894Z,11.00
2019-03-06T04:20:02.941Z,10.48
2019-03-06T04:22:32.098Z,10.45
2019-03-06T04:25:01.014Z,10.63
2019-03-06T04:27:30.015Z,14.07
2019-03-06T04:29:59.220Z,10.80
2019-03-06T04:32:28.214Z,12.50
2019-03-06T04:34:57.269Z,11.95
2019-03-06T04:37:26.206Z,10.28
2019-03-06T04:39:58.282Z,11.20
2019-03-06T04:42:29.340Z,10.90
2019-03-06T04:44:58.589Z,15.48
2019-03-06T04:47:27.579Z,10.93
2019-03-06T04:49:56.508Z,11.48
2019-03-06T04:52:25.444Z,11.57
2019-03-06T04:54:54.325Z,11.97
2019-03-06T04:57:23.273Z,11.97
2019-03-06T04:59:52.236Z,10.85
2019-03-06T05:02:21.296Z,12.18
2019-03-06T05:04:50.668Z,11.97
2019-03-06T05:07:19.620Z,12.53
2019-03-06T05:09:48.684Z,15.95
2019-03-06T05:12:18.707Z,16.07
2019-03-06T05:14:47.927Z,13.30
2019-03-06T05:17:23.215Z,14.73
2019-03-06T05:19:52.660Z,17.43
2019-03-06T05:22:21.690Z,14.78
2019-03-06T05:24:50.717Z,14.93
2019-03-06T05:27:19.574Z,15.32
2019-03-06T05:29:48.796Z,15.48
2019-03-06T05:32:29.028Z,14.17
2019-03-06T05:34:59.501Z,13.58
2019-03-06T05:38:04.499Z,14.70
2019-03-06T05:40:33.424Z,20.02
2019-03-06T05:43:02.350Z,17.52
2019-03-06T05:45:31.352Z,13.90
2019-03-06T05:48:00.664Z,14.23
2019-03-06T05:50:29.691Z,13.40
2019-03-06T05:52:58.701Z,15.25
2019-03-06T05:55:27.638Z,14.75
2019-03-06T05:57:56.508Z,21.37
2019-03-06T06:00:27.097Z,16.73
2019-03-06T06:02:56.111Z,17.37
2019-03-06T06:05:25.152Z,17.87
2019-03-06T06:07:54.155Z,16.07
2019-03-06T06:10:23.172Z,17.15
2019-03-06T06:12:52.313Z,17.75
2019-03-06T06:15:21.317Z,20.45
2019-03-06T06:17:50.213Z,22.52
2019-03-06T06:20:19.095Z,23.40
2019-03-06T06:22:57.320Z,25.55
2019-03-06T06:25:26.682Z,24.60
2019-03-06T06:27:55.531Z,25.43
2019-03-06T06:30:24.473Z,26.00
2019-03-06T06:32:53.412Z,24.43
2019-03-06T06:35:22.553Z,23.55
2019-03-06T06:37:51.519Z,23.65
2019-03-06T06:40:20.575Z,23.57
2019-03-06T06:42:49.519Z,21.77
2019-03-06T06:45:18.556Z,22.22
2019-03-06T06:48:23.229Z,22.05
2019-03-06T06:51:18.153Z,23.07
2019-03-06T06:54:04.557Z,21.15
2019-03-06T06:57:05.364Z,22.25
2019-03-06T07:00:14.341Z,21.07
2019-03-06T07:03:33.154Z,22.30
2019-03-06T07:06:19.387Z,22.15
2019-03-06T07:08:57.755Z,22.77
2019-03-06T07:11:52.484Z,23.73
2019-03-06T07:14:34.603Z,24.92
2019-03-06T07:17:22.991Z,23.40
2019-03-06T07:20:08.804Z,22.98
2019-03-06T07:22:46.829Z,23.55
2019-03-06T07:25:34.832Z,23.10
2019-03-06T07:28:09.481Z,21.05
2019-03-06T07:30:56.388Z,22.62
2019-03-06T07:33:44.415Z,19.92
2019-03-06T07:36:47.510Z,22.58
2019-03-06T07:39:43.736Z,17.48
2019-03-06T07:42:47.072Z,15.85
2019-03-06T07:46:00.292Z,15.78
2019-03-06T07:48:57.128Z,15.00
2019-03-06T07:51:57.273Z,14.55
2019-03-06T07:54:41.046Z,11.43
2019-03-06T07:57:38.161Z,11.63
2019-03-06T08:00:19.331Z,11.08
2019-03-06T08:03:19.673Z,10.72
2019-03-06T08:05:48.516Z,10.20
2019-03-06T08:08:17.500Z,9.80
2019-03-06T08:10:46.451Z,10.20
2019-03-06T08:13:37.603Z,8.63
2019-03-06T08:16:17.657Z,8.20
2019-03-06T08:18:56.448Z,7.83
2019-03-06T08:21:44.869Z,7.50
2019-03-06T08:24:35.994Z,7.35
2019-03-06T08:27:04.986Z,7.47
2019-03-06T08:29:33.899Z,7.58
2019-03-06T08:32:11.171Z,6.62
2019-03-06T08:34:40.062Z,6.22
2019-03-06T08:37:08.833Z,6.10
2019-03-06T08:39:37.782Z,5.40
2019-03-06T08:42:06.690Z,5.10
2019-03-06T08:44:35.586Z,5.53
2019-03-06T08:47:18.650Z,5.00
2019-03-06T08:49:58.066Z,4.20
2019-03-06T08:52:44.481Z,3.87
2019-03-06T08:55:31.455Z,3.90
2019-03-06T08:58:06.926Z,3.92
2019-03-06T09:00:53.869Z,3.80
2019-03-06T09:03:57.567Z,3.52
2019-03-06T09:06:33.526Z,3.85
2019-03-06T09:09:20.146Z,4.08
2019-03-06T09:12:14.130Z,3.80
2019-03-06T09:15:05.475Z,3.77
2019-03-06T09:17:53.765Z,3.52
2019-03-06T09:20:49.370Z,3.58
2019-03-06T09:23:36.259Z,3.60
2019-03-06T09:26:24.379Z,3.47
2019-03-06T09:29:01.847Z,3.33
2019-03-06T09:31:44.941Z,3.67
2019-03-06T09:34:33.236Z,3.67
2019-03-06T09:37:36.307Z,3.40
2019-03-06T09:40:24.155Z,3.20
2019-03-06T09:43:07.467Z,3.10
2019-03-06T09:45:58.683Z,3.10
2019-03-06T09:48:45.615Z,3.10
2019-03-06T09:51:29.958Z,3.10
2019-03-06T09:54:29.777Z,2.90
2019-03-06T09:57:16.578Z,2.52
2019-03-06T10:00:16.951Z,2.58
2019-03-06T10:03:08.013Z,2.60
2019-03-06T10:05:55.938Z,2.42
2019-03-06T10:08:31.998Z,2.70
2019-03-06T10:11:10.398Z,2.60
2019-03-06T10:13:47.173Z,2.10
2019-03-06T10:16:30.302Z,2.33
2019-03-06T10:19:31.025Z,2.17
2019-03-06T10:22:00.402Z,2.30
2019-03-06T10:24:29.270Z,2.20
2019-03-06T10:26:58.218Z,2.50
2019-03-06T10:29:27.542Z,2.30
2019-03-06T10:31:56.335Z,2.10
2019-03-06T10:34:25.726Z,2.20
2019-03-06T10:36:54.658Z,2.00
2019-03-06T10:39:23.509Z,2.10
2019-03-06T10:41:52.430Z,2.17
2019-03-06T10:44:28.806Z,2.17
2019-03-06T10:46:52.118Z,1.80
2019-03-06T10:49:20.938Z,1.90
2019-03-06T10:51:49.730Z,2.03
2019-03-06T10:54:18.649Z,1.80
2019-03-06T10:56:47.682Z,1.70
2019-03-06T10:59:16.695Z,1.80
2019-03-06T11:01:45.983Z,1.80
2019-03-06T11:04:27.910Z,1.80
2019-03-06T11:06:57.102Z,1.95
2019-03-06T11:09:26.811Z,1.50
2019-03-06T11:11:55.942Z,1.70
2019-03-06T11:14:24.982Z,1.55
2019-03-06T11:16:53.830Z,1.52
2019-03-06T11:19:23.146Z,1.50
2019-03-06T11:21:52.098Z,1.55
2019-03-06T11:24:21.022Z,1.60
2019-03-06T11:26:49.996Z,1.40
2019-03-06T11:29:19.467Z,1.60
2019-03-06T11:31:48.619Z,1.55
2019-03-06T11:34:17.723Z,1.60
2019-03-06T11:36:46.648Z,1.50
2019-03-06T11:39:15.647Z,1.70
2019-03-06T11:41:44.588Z,1.72
2019-03-06T11:44:13.556Z,1.80
2019-03-06T11:46:42.790Z,1.50
2019-03-06T11:49:11.722Z,1.60
2019-03-06T11:51:40.750Z,1.70
2019-03-06T11:54:10.050Z,1.87
2019-03-06T11:56:39.024Z,1.80
2019-03-06T11:59:07.959Z,1.60
2019-03-06T12:01:36.978Z,1.60
2019-03-06T12:04:06.247Z,1.50
2019-03-06T12:06:35.158Z,1.80
2019-03-06T12:09:08.945Z,1.50
2019-03-06T12:11:37.742Z,1.62
2019-03-06T12:14:06.794Z,1.70
2019-03-06T12:16:41.863Z,1.60
2019-03-06T12:19:06.229Z,1.60
2019-03-06T12:21:35.131Z,1.50
2019-03-06T12:24:03.970Z,1.60
2019-03-06T12:26:32.897Z,1.60
2019-03-06T12:29:02.108Z,1.42
2019-03-06T12:31:31.182Z,1.50
2019-03-06T12:34:00.150Z,1.70
2019-03-06T12:36:28.936Z,1.70
2019-03-06T12:38:58.762Z,1.60
2019-03-06T12:41:27.598Z,1.40
2019-03-06T12:43:56.444Z,1.57
2019-03-06T12:46:25.886Z,1.57
2019-03-06T12:49:04.258Z,1.60
2019-03-06T12:51:34.583Z,1.80
2019-03-06T12:54:03.528Z,2.00
2019-03-06T12:56:32.290Z,1.60
2019-03-06T12:59:01.102Z,1.77
2019-03-06T13:01:30.266Z,1.80
2019-03-06T13:03:59.396Z,1.95
2019-03-06T13:06:28.295Z,1.60
2019-03-06T13:08:57.788Z,1.62
2019-03-06T13:11:26.971Z,1.77
2019-03-06T13:13:55.902Z,1.80
2019-03-06T13:16:25.467Z,1.80
2019-03-06T13:18:54.430Z,1.92
2019-03-06T13:21:24.210Z,1.98
2019-03-06T13:23:53.182Z,1.82
2019-03-06T13:26:22.030Z,1.82
2019-03-06T13:28:57.524Z,2.25
2019-03-06T13:31:22.066Z,2.00
2019-03-06T13:34:11.837Z,2.02
2019-03-06T13:36:40.754Z,1.90
2019-03-06T13:39:10.157Z,1.92
2019-03-06T13:41:39.094Z,1.90
2019-03-06T13:44:08.061Z,2.00
2019-03-06T13:46:37.095Z,1.85
2019-03-06T13:49:06.039Z,2.10
2019-03-06T13:51:35.023Z,2.00
2019-03-06T13:54:04.201Z,1.90
2019-03-06T13:56:33.142Z,2.08
2019-03-06T13:59:01.966Z,2.15
2019-03-06T14:01:31.394Z,2.10
2019-03-06T14:04:00.198Z,2.20
2019-03-06T14:06:29.085Z,2.60
2019-03-06T14:08:57.970Z,2.10
2019-03-06T14:11:26.951Z,2.20
2019-03-06T14:13:55.878Z,2.17
2019-03-06T14:16:25.203Z,2.22
2019-03-06T14:18:54.083Z,2.20
2019-03-06T14:21:23.067Z,2.37
2019-03-06T14:23:51.887Z,2.27
2019-03-06T14:26:20.898Z,2.10
2019-03-06T14:28:49.711Z,2.20
2019-03-06T14:31:18.755Z,2.02
2019-03-06T14:33:47.615Z,2.22
2019-03-06T14:36:16.575Z,2.35
2019-03-06T14:38:45.875Z,2.30
2019-03-06T14:41:14.922Z,2.37
2019-03-06T14:43:43.792Z,2.20
2019-03-06T14:46:16.433Z,2.20
2019-03-06T14:48:43.363Z,2.12
2019-03-06T14:51:13.923Z,2.22
2019-03-06T14:53:42.891Z,2.20
2019-03-06T14:56:12.014Z,2.20
2019-03-06T14:58:41.121Z,2.27
2019-03-06T15:01:10.084Z,2.22
2019-03-06T15:03:38.954Z,2.17
2019-03-06T15:06:07.903Z,2.20
2019-03-06T15:08:36.760Z,2.43
2019-03-06T15:11:05.686Z,2.40
2019-03-06T15:13:34.675Z,2.40
2019-03-06T15:16:03.604Z,2.40
2019-03-06T15:18:32.482Z,2.42
2019-03-06T15:21:01.530Z,2.30
2019-03-06T15:23:30.398Z,2.70
2019-03-06T15:25:59.291Z,2.60
2019-03-06T15:28:29.022Z,2.60
2019-03-06T15:30:57.911Z,2.62
2019-03-06T15:33:26.931Z,2.30
2019-03-06T15:35:55.874Z,2.87
2019-03-06T15:38:24.791Z,2.52
2019-03-06T15:40:53.667Z,2.70
2019-03-06T15:43:22.974Z,2.67
2019-03-06T15:45:51.939Z,2.65
2019-03-06T15:48:20.797Z,2.60
2019-03-06T15:50:49.728Z,2.58
2019-03-06T15:53:24.517Z,2.35
2019-03-06T15:55:49.299Z,2.70
2019-03-06T15:58:18.145Z,2.80
2019-03-06T16:00:48.357Z,3.20
2019-03-06T16:03:17.279Z,3.42
2019-03-06T16:05:46.322Z,3.00
2019-03-06T16:08:15.237Z,3.00
2019-03-06T16:10:44.586Z,3.15
2019-03-06T16:13:13.522Z,2.90
2019-03-06T16:15:42.663Z,2.70
2019-03-06T16:18:11.714Z,3.00
2019-03-06T16:20:41.107Z,2.95
2019-03-06T16:23:10.042Z,3.30
2019-03-06T16:25:40.249Z,3.00
2019-03-06T16:28:09.436Z,3.22
2019-03-06T16:30:39.070Z,3.45
2019-03-06T16:33:08.050Z,2.85
2019-03-06T16:35:37.001Z,2.65
2019-03-06T16:38:06.079Z,2.60
2019-03-06T16:40:35.081Z,2.90
2019-03-06T16:43:03.996Z,2.87
2019-03-06T16:45:32.990Z,3.02
2019-03-06T16:48:01.929Z,3.20
2019-03-06T16:50:30.878Z,3.90
2019-03-06T16:52:59.738Z,4.30
2019-03-06T16:55:28.701Z,3.60
2019-03-06T16:57:58.050Z,3.62
2019-03-06T17:00:31.562Z,3.95
2019-03-06T17:03:01.116Z,4.62
2019-03-06T17:05:30.583Z,4.65
2019-03-06T17:08:00.210Z,5.20
2019-03-06T17:10:29.246Z,5.20
2019-03-06T17:12:58.846Z,4.80
2019-03-06T17:15:28.743Z,4.10
2019-03-06T17:17:57.735Z,4.15
2019-03-06T17:20:27.751Z,4.60
2019-03-06T17:22:57.312Z,4.28
2019-03-06T17:25:28.258Z,4.70
2019-03-06T17:27:57.318Z,4.92
2019-03-06T17:30:26.848Z,4.30
2019-03-06T17:33:14.401Z,4.33
2019-03-06T17:35:43.498Z,4.50
2019-03-06T17:38:12.764Z,4.22
2019-03-06T17:40:41.714Z,4.30
2019-03-06T17:43:10.682Z,4.85
2019-03-06T17:45:39.745Z,4.85
2019-03-06T17:48:09.200Z,4.97
2019-03-06T17:50:38.178Z,5.50
2019-03-06T17:53:07.342Z,6.53
2019-03-06T17:55:36.350Z,7.17
2019-03-06T17:58:05.441Z,6.08
2019-03-06T18:00:47.320Z,6.30
2019-03-06T18:03:20.864Z,6.33
2019-03-06T18:05:50.942Z,6.60
2019-03-06T18:08:20.196Z,7.15
2019-03-06T18:10:49.228Z,8.10
2019-03-06T18:13:18.150Z,7.22
2019-03-06T18:15:47.172Z,8.23
2019-03-06T18:18:16.071Z,6.72
2019-03-06T18:20:45.108Z,6.80
2019-03-06T18:23:14.110Z,6.58
2019-03-06T18:25:43.022Z,7.37
2019-03-06T18:28:12.010Z,6.80
2019-03-06T18:30:41.846Z,6.85
2019-03-06T18:33:10.859Z,7.10
2019-03-06T18:35:39.866Z,7.05
2019-03-06T18:38:08.791Z,6.20
2019-03-06T18:40:37.795Z,6.20
2019-03-06T18:43:06.991Z,6.90
2019-03-06T18:45:36.113Z,7.70
2019-03-06T18:48:05.683Z,5.90
2019-03-06T18:50:34.534Z,5.93
2019-03-06T18:53:03.475Z,6.17
2019-03-06T18:55:32.465Z,5.90
2019-03-06T18:58:01.709Z,6.25
2019-03-06T19:00:30.823Z,6.20
2019-03-06T19:02:59.870Z,6.30
2019-03-06T19:05:28.866Z,10.00
2019-03-06T19:07:57.813Z,7.40
2019-03-06T19:10:26.941Z,6.70
2019-03-06T19:12:56.066Z,6.30
2019-03-06T19:15:25.038Z,6.60
2019-03-06T19:17:54.020Z,6.67
2019-03-06T19:20:23.845Z,7.12
2019-03-06T19:22:53.458Z,8.23
2019-03-06T19:25:22.559Z,7.80
2019-03-06T19:27:51.587Z,7.42
2019-03-06T19:30:21.478Z,7.62
2019-03-06T19:32:50.554Z,7.83
2019-03-06T19:35:20.111Z,7.80
2019-03-06T19:37:49.083Z,7.87
2019-03-06T19:40:18.690Z,8.43
2019-03-06T19:42:47.941Z,8.03
2019-03-06T19:45:18.182Z,8.30
2019-03-06T19:47:47.630Z,8.00
2019-03-06T19:50:18.534Z,7.80
2019-03-06T19:52:47.463Z,8.40
2019-03-06T19:55:17.787Z,8.18
2019-03-06T19:57:54.583Z,9.28
2019-03-06T20:00:24.285Z,10.72
2019-03-06T20:02:53.405Z,10.20
2019-03-06T20:05:22.946Z,9.57
2019-03-06T20:07:51.886Z,9.60
2019-03-06T20:10:21.423Z,9.40
2019-03-06T20:12:50.366Z,10.25
2019-03-06T20:15:19.828Z,9.43
2019-03-06T20:17:48.879Z,10.10
2019-03-06T20:20:18.237Z,9.93
2019-03-06T20:22:47.507Z,9.83
2019-03-06T20:25:18.154Z,10.18
2019-03-06T20:27:47.244Z,9.73
2019-03-06T20:30:17.406Z,9.55
2019-03-06T20:32:47.325Z,9.90
2019-03-06T20:35:20.143Z,9.90
2019-03-06T20:37:49.317Z,9.68
2019-03-06T20:40:18.995Z,9.50
2019-03-06T20:42:47.983Z,9.75
2019-03-06T20:45:17.430Z,9.83
2019-03-06T20:47:46.734Z,9.83
2019-03-06T20:50:15.702Z,9.53
2019-03-06T20:52:44.751Z,9.83
2019-03-06T20:55:15.347Z,9.73
2019-03-06T20:57:44.591Z,9.63
2019-03-06T21:00:15.697Z,9.90
2019-03-06T21:02:45.043Z,10.45
2019-03-06T21:05:14.121Z,9.80
2019-03-06T21:07:45.192Z,10.15
2019-03-06T21:10:15.365Z,10.08
2019-03-06T21:12:44.442Z,10.68
2019-03-06T21:15:15.393Z,13.90
2019-03-06T21:17:44.664Z,14.33
2019-03-06T21:20:15.214Z,13.70
2019-03-06T21:22:44.156Z,11.80
2019-03-06T21:25:14.529Z,11.97
2019-03-06T21:27:43.394Z,11.50
2019-03-06T21:30:15.527Z,13.70
2019-03-06T21:32:44.414Z,12.03
2019-03-06T21:35:13.310Z,13.90
2019-03-06T21:37:42.273Z,13.00
2019-03-06T21:40:11.261Z,12.40
2019-03-06T21:42:40.214Z,11.60
2019-03-06T21:45:09.595Z,11.25
2019-03-06T21:47:38.580Z,12.78
2019-03-06T21:50:09.744Z,12.55
2019-03-06T21:52:38.562Z,11.28
2019-03-06T21:55:09.387Z,10.48
2019-03-06T21:57:38.859Z,9.75
2019-03-06T22:00:11.503Z,9.18
2019-03-06T22:02:40.491Z,9.40
2019-03-06T22:05:09.722Z,9.93
2019-03-06T22:07:38.585Z,10.25
2019-03-06T22:10:08.257Z,10.00
2019-03-06T22:12:37.582Z,9.40
2019-03-06T22:15:10.454Z,9.33
2019-03-06T22:17:40.234Z,9.93
2019-03-06T22:20:09.843Z,9.68
2019-03-06T22:22:38.726Z,9.20
2019-03-06T22:25:08.339Z,8.75
2019-03-06T22:27:37.193Z,9.40
2019-03-06T22:30:07.482Z,9.65
2019-03-06T22:32:36.401Z,9.73
2019-03-06T22:35:05.431Z,10.40
2019-03-06T22:37:34.234Z,10.03
2019-03-06T22:40:03.098Z,10.28
2019-03-06T22:42:32.227Z,10.18
2019-03-06T22:45:01.319Z,10.63
2019-03-06T22:47:30.498Z,10.70
2019-03-06T22:49:59.856Z,10.85
2019-03-06T22:52:29.185Z,10.55
2019-03-06T22:54:57.973Z,10.65
2019-03-06T22:57:26.930Z,10.75
2019-03-06T22:59:55.731Z,10.80
2019-03-06T23:02:25.147Z,10.82
2019-03-06T23:04:54.030Z,10.78
2019-03-06T23:07:23.023Z,9.68
2019-03-06T23:09:51.830Z,9.98
2019-03-06T23:12:20.726Z,10.03
2019-03-06T23:14:49.580Z,10.03
2019-03-06T23:17:19.719Z,9.78
2019-03-06T23:19:48.823Z,9.65
2019-03-06T23:22:17.648Z,9.63
2019-03-06T23:24:48.737Z,9.95
2019-03-06T23:27:17.329Z,9.88
2019-03-06T23:29:46.172Z,10.30
2019-03-06T23:32:14.991Z,10.53
2019-03-06T23:34:43.779Z,9.70
2019-03-06T23:37:12.586Z,9.23
2019-03-06T23:39:41.747Z,9.43
2019-03-06T23:42:10.738Z,9.28
2019-03-06T23:44:39.594Z,9.10
2019-03-06T23:47:08.459Z,9.05
2019-03-06T23:49:37.556Z,9.10
2019-03-06T23:52:23.258Z,9.20
2019-03-06T23:54:52.418Z,9.50
2019-03-06T23:57:21.496Z,9.15
2019-03-06T23:59:50.402Z,9.65
